Time;durP1;ratioP1;P1;durP2;ratioP2;P2;SDS_P1;SDS_P2;PMS_P1;PMS_P2;Temp;Humidity;BMP_temperature;BMP_pressure;BME280_temperature;BME280_humidity;BME280_pressure;Samples;Min_cycle;Max_cycle;Signal;HPM_P1;HPM_P2
2022/12/26 00:01:08;;;;;;;2.20;1.50;;;;;;;;;;5052430;27;87588;-56
2022/12/26 00:03:36;;;;;;;1.80;1.47;;;;;;;;;;5083329;27;87075;-56
2022/12/26 00:06:07;;;;;;;1.77;1.40;;;;;;;;;;5072430;27;87045;-56
2022/12/26 00:08:35;;;;;;;2.10;1.30;;;;;;;;;;5056006;27;89306;-54
2022/12/26 00:11:03;;;;;;;1.77;0.87;;;;;;;;;;5073035;27;88745;-56
2022/12/26 00:13:32;;;;;;;1.43;1.33;;;;;;;;;;5063243;27;86947;-56
2022/12/26 00:16:08;;;;;;;1.60;0.90;;;;;;;;;;5063109;27;86380;-56
2022/12/26 00:18:37;;;;;;;1.27;0.73;;;;;;;;;;5062603;27;88568;-57
2022/12/26 00:21:07;;;;;;;1.37;1.17;;;;;;;;;;5060305;27;88622;-56
2022/12/26 00:23:35;;;;;;;1.40;1.00;;;;;;;;;;5051789;27;87971;-56
2022/12/26 00:26:04;;;;;;;3.23;1.50;;;;;;;;;;5063084;27;87091;-57
2022/12/26 00:28:32;;;;;;;0.73;0.70;;;;;;;;;;5062310;27;89046;-56
2022/12/26 00:31:03;;;;;;;1.00;0.90;;;;;;;;;;5063015;27;87735;-56
2022/12/26 00:33:32;;;;;;;1.80;1.00;;;;;;;;;;5062871;27;87161;-56
2022/12/26 00:36:02;;;;;;;1.80;1.40;;;;;;;;;;5062790;27;87031;-56
2022/12/26 00:38:32;;;;;;;1.90;0.80;;;;;;;;;;5062786;27;88778;-55
2022/12/26 00:41:00;;;;;;;2.40;1.30;;;;;;;;;;5062803;27;88918;-56
2022/12/26 00:43:28;;;;;;;1.13;1.00;;;;;;;;;;5062938;27;86903;-55
2022/12/26 00:45:57;;;;;;;1.00;0.90;;;;;;;;;;5062415;27;87028;-55
2022/12/26 00:48:25;;;;;;;1.30;0.97;;;;;;;;;;5061939;27;89030;-56
2022/12/26 00:50:54;;;;;;;1.07;0.97;;;;;;;;;;5061254;27;88716;-56
2022/12/26 00:53:22;;;;;;;0.73;0.70;;;;;;;;;;5062565;27;86884;-55
2022/12/26 00:55:52;;;;;;;1.73;1.13;;;;;;;;;;5062510;27;87073;-55
2022/12/26 00:58:21;;;;;;;1.17;0.93;;;;;;;;;;5062589;27;88189;-56
2022/12/26 01:00:49;;;;;;;1.50;1.07;;;;;;;;;;5061760;27;89946;-54
2022/12/26 01:03:18;;;;;;;1.27;0.83;;;;;;;;;;5062004;27;87016;-56
2022/12/26 01:05:47;;;;;;;1.30;0.93;;;;;;;;;;5062240;27;86238;-54
2022/12/26 01:08:16;;;;;;;1.77;1.00;;;;;;;;;;5062193;27;88256;-54
2022/12/26 01:10:52;;;;;;;1.37;1.00;;;;;;;;;;5060584;27;87903;-56
2022/12/26 01:13:20;;;;;;;1.27;1.10;;;;;;;;;;5060635;27;87963;-54
2022/12/26 01:15:49;;;;;;;1.27;0.90;;;;;;;;;;5060564;27;87199;-54
2022/12/26 01:18:18;;;;;;;2.73;1.23;;;;;;;;;;5060721;27;88007;-54
2022/12/26 01:20:46;;;;;;;0.70;0.70;;;;;;;;;;5059465;27;88376;-57
2022/12/26 01:23:14;;;;;;;0.70;0.70;;;;;;;;;;5054481;27;87463;-54
2022/12/26 01:25:43;;;;;;;1.03;0.93;;;;;;;;;;5072767;27;87065;-54
2022/12/26 01:28:33;;;;;;;1.83;1.30;;;;;;;;;;5062494;27;87694;-54
2022/12/26 01:31:01;;;;;;;1.73;1.13;;;;;;;;;;5048049;27;89197;-54
2022/12/26 01:33:30;;;;;;;1.20;0.93;;;;;;;;;;5039813;27;87230;-54
2022/12/26 01:35:58;;;;;;;1.17;1.00;;;;;;;;;;5052154;27;87096;-54
2022/12/26 01:38:26;;;;;;;2.47;0.93;;;;;;;;;;5062306;27;90000;-54
2022/12/26 01:43:52;;;;;;;1.57;1.00;;;;;;;;;;5062878;27;86949;-56
2022/12/26 01:46:21;;;;;;;1.53;1.13;;;;;;;;;;5062114;27;87004;-56
2022/12/26 01:48:49;;;;;;;4.10;1.03;;;;;;;;;;5062589;27;89102;-55
2022/12/26 01:51:17;;;;;;;2.10;1.43;;;;;;;;;;5062269;27;87760;-55
2022/12/26 01:53:46;;;;;;;2.27;1.47;;;;;;;;;;5062388;27;86924;-55
2022/12/26 01:56:15;;;;;;;1.57;1.30;;;;;;;;;;5062538;27;86180;-55
2022/12/26 01:58:44;;;;;;;2.67;1.10;;;;;;;;;;5062348;27;88225;-54
2022/12/26 02:01:14;;;;;;;0.90;0.90;;;;;;;;;;5062431;27;87967;-55
2022/12/26 02:06:43;;;;;;;1.73;1.20;;;;;;;;;;4999118;28;87053;-55
2022/12/26 02:09:12;;;;;;;1.57;1.20;;;;;;;;;;4999818;28;89156;-55
2022/12/26 02:11:41;;;;;;;0.90;0.77;;;;;;;;;;5027791;27;87064;-55
2022/12/26 02:14:09;;;;;;;2.07;1.10;;;;;;;;;;5062731;27;87016;-55
2022/12/26 02:16:39;;;;;;;1.43;1.10;;;;;;;;;;5062135;27;87059;-55
2022/12/26 02:19:09;;;;;;;1.10;0.77;;;;;;;;;;5061661;27;88152;-55
2022/12/26 02:21:50;;;;;;;0.83;0.70;;;;;;;;;;5062641;27;88912;-55
2022/12/26 02:24:37;;;;;;;2.23;1.27;;;;;;;;;;5062144;27;87122;-55
2022/12/26 02:27:06;;;;;;;0.70;0.70;;;;;;;;;;5061823;27;86896;-55
2022/12/26 02:29:43;;;;;;;0.80;0.80;;;;;;;;;;5055680;27;88838;-55
2022/12/26 02:32:15;;;;;;;0.97;0.70;;;;;;;;;;5042266;27;88895;-56
2022/12/26 02:34:46;;;;;;;1.63;0.93;;;;;;;;;;5048055;27;87070;-56
2022/12/26 02:37:18;;;;;;;1.00;0.80;;;;;;;;;;5047694;27;87047;-56
2022/12/26 02:39:51;;;;;;;0.60;0.60;;;;;;;;;;5057847;27;88087;-56
2022/12/26 02:42:21;;;;;;;0.87;0.87;;;;;;;;;;5062056;27;87156;-56
2022/12/26 02:47:42;;;;;;;0.93;0.57;;;;;;;;;;5042042;28;86432;-56
2022/12/26 03:15:20;;;;;;;0.77;0.77;;;;;;;;;;5043410;27;89008;-56
2022/12/26 03:17:48;;;;;;;1.77;0.80;;;;;;;;;;5057101;27;87113;-56
2022/12/26 03:20:18;;;;;;;0.80;0.70;;;;;;;;;;5044626;27;86968;-56
2022/12/26 03:22:47;;;;;;;0.80;0.73;;;;;;;;;;5051852;27;88917;-56
2022/12/26 03:28:02;;;;;;;0.87;0.73;;;;;;;;;;5058121;27;87312;-55
2022/12/26 03:30:48;;;;;;;1.27;0.90;;;;;;;;;;5046000;27;86903;-56
2022/12/26 03:36:04;;;;;;;0.77;0.73;;;;;;;;;;5043943;27;87604;-56
2022/12/26 03:38:34;;;;;;;1.00;0.60;;;;;;;;;;5063614;27;87003;-56
2022/12/26 04:20:13;;;;;;;0.60;0.60;;;;;;;;;;5062975;27;88558;-56
2022/12/26 04:44:59;;;;;;;0.63;0.63;;;;;;;;;;5042404;27;88383;-57
2022/12/26 04:47:28;;;;;;;0.53;0.50;;;;;;;;;;5045661;27;87286;-57
2022/12/26 04:50:10;;;;;;;0.60;0.60;;;;;;;;;;5050936;27;88982;-56
2022/12/26 04:55:25;;;;;;;0.83;0.83;;;;;;;;;;5041037;27;87361;-56
2022/12/26 04:57:55;;;;;;;0.60;0.60;;;;;;;;;;5049773;27;87045;-57
2022/12/26 05:00:24;;;;;;;0.77;0.67;;;;;;;;;;5042728;27;87966;-56
2022/12/26 05:11:23;;;;;;;0.60;0.60;;;;;;;;;;5051236;27;90052;-56
2022/12/26 05:13:53;;;;;;;4.23;0.73;;;;;;;;;;5062747;27;89865;-56
2022/12/26 05:30:15;;;;;;;0.83;0.70;;;;;;;;;;5042432;28;86255;-56
2022/12/26 05:35:29;;;;;;;0.57;0.27;;;;;;;;;;5042408;27;88916;-56
2022/12/26 05:37:58;;;;;;;0.40;0.40;;;;;;;;;;5041131;27;88976;-56
2022/12/26 05:40:26;;;;;;;1.23;0.93;;;;;;;;;;5042309;28;86995;-56
2022/12/26 05:42:54;;;;;;;1.73;0.47;;;;;;;;;;5050044;27;89536;-57
2022/12/26 05:45:24;;;;;;;0.83;0.70;;;;;;;;;;5060284;27;88254;-56
2022/12/26 05:47:57;;;;;;;0.80;0.80;;;;;;;;;;5050690;27;86827;-57
2022/12/26 05:50:26;;;;;;;1.00;0.60;;;;;;;;;;5042191;27;87227;-56
2022/12/26 05:52:54;;;;;;;0.40;0.40;;;;;;;;;;5057646;27;89157;-56
2022/12/26 05:55:23;;;;;;;0.50;0.50;;;;;;;;;;5048969;27;87946;-56
2022/12/26 05:57:51;;;;;;;0.83;0.70;;;;;;;;;;5054400;27;87085;-56
2022/12/26 06:00:20;;;;;;;1.30;0.60;;;;;;;;;;5042762;28;86903;-57
2022/12/26 06:02:49;;;;;;;0.40;0.30;;;;;;;;;;5059515;27;89944;-56
2022/12/26 06:05:18;;;;;;;0.67;0.50;;;;;;;;;;5061841;27;87583;-57
2022/12/26 06:07:46;;;;;;;0.80;0.80;;;;;;;;;;5051975;27;87020;-56
2022/12/26 06:10:14;;;;;;;0.50;0.47;;;;;;;;;;5041867;28;87117;-56
2022/12/26 06:12:42;;;;;;;0.60;0.50;;;;;;;;;;5043034;27;89128;-56
2022/12/26 06:15:11;;;;;;;0.50;0.50;;;;;;;;;;5055069;27;88954;-56
2022/12/26 06:17:40;;;;;;;0.30;0.30;;;;;;;;;;5062428;27;86883;-56
2022/12/26 06:20:10;;;;;;;1.93;0.73;;;;;;;;;;5062303;27;86252;-56
2022/12/26 06:22:38;;;;;;;0.80;0.53;;;;;;;;;;5045550;27;88260;-56
2022/12/26 06:25:07;;;;;;;0.73;0.70;;;;;;;;;;5058957;27;87718;-56
2022/12/26 06:27:35;;;;;;;0.60;0.50;;;;;;;;;;5054575;27;87898;-56
2022/12/26 06:30:04;;;;;;;0.40;0.40;;;;;;;;;;5041786;27;88711;-56
2022/12/26 06:32:32;;;;;;;0.83;0.40;;;;;;;;;;5048131;27;88095;-56
2022/12/26 06:35:01;;;;;;;0.30;0.30;;;;;;;;;;5041777;27;88671;-56
2022/12/26 06:37:30;;;;;;;0.53;0.53;;;;;;;;;;5041602;27;87143;-56
2022/12/26 06:39:59;;;;;;;0.30;0.30;;;;;;;;;;5041770;27;87045;-56
2022/12/26 06:42:27;;;;;;;0.80;0.80;;;;;;;;;;5043604;27;87820;-56
2022/12/26 06:44:56;;;;;;;2.37;0.70;;;;;;;;;;5051344;27;87866;-56
2022/12/26 06:47:24;;;;;;;0.47;0.47;;;;;;;;;;5060076;27;87073;-56
2022/12/26 06:49:52;;;;;;;0.60;0.60;;;;;;;;;;5044657;27;86994;-57
2022/12/26 06:52:20;;;;;;;0.37;0.37;;;;;;;;;;5044509;27;89170;-56
2022/12/26 06:54:50;;;;;;;0.50;0.50;;;;;;;;;;5044507;27;87615;-56
2022/12/26 06:57:18;;;;;;;0.60;0.60;;;;;;;;;;5052543;27;86736;-56
2022/12/26 06:59:47;;;;;;;0.47;0.47;;;;;;;;;;5065710;27;87014;-56
2022/12/26 07:02:15;;;;;;;0.50;0.50;;;;;;;;;;5065068;27;88277;-56
2022/12/26 07:04:44;;;;;;;0.40;0.40;;;;;;;;;;5050095;27;86997;-55
2022/12/26 07:07:12;;;;;;;1.70;0.63;;;;;;;;;;5050173;27;86787;-56
2022/12/26 07:09:40;;;;;;;0.40;0.40;;;;;;;;;;5063397;27;86240;-57
2022/12/26 07:12:10;;;;;;;0.60;0.60;;;;;;;;;;5064606;27;89106;-56
2022/12/26 07:14:38;;;;;;;0.40;0.40;;;;;;;;;;5063100;27;87631;-57
2022/12/26 07:17:06;;;;;;;0.60;0.60;;;;;;;;;;5055042;27;88102;-56
2022/12/26 07:19:35;;;;;;;0.40;0.40;;;;;;;;;;5053069;27;87306;-57
2022/12/26 07:22:03;;;;;;;0.87;0.47;;;;;;;;;;5059174;27;88295;-57
2022/12/26 07:24:31;;;;;;;0.77;0.60;;;;;;;;;;5045681;27;87804;-57
2022/12/26 07:27:00;;;;;;;0.47;0.47;;;;;;;;;;5049956;27;87014;-57
2022/12/26 07:29:29;;;;;;;0.57;0.50;;;;;;;;;;5064338;27;87005;-57
2022/12/26 07:31:58;;;;;;;0.47;0.47;;;;;;;;;;5058338;27;88468;-57
2022/12/26 07:34:27;;;;;;;0.53;0.53;;;;;;;;;;5044441;27;87800;-57
2022/12/26 07:36:59;;;;;;;0.50;0.50;;;;;;;;;;5044778;27;87081;-57
2022/12/26 07:39:27;;;;;;;0.50;0.50;;;;;;;;;;5044811;27;87418;-57
2022/12/26 07:41:59;;;;;;;0.60;0.60;;;;;;;;;;5043457;27;89977;-57
2022/12/26 07:44:27;;;;;;;0.43;0.43;;;;;;;;;;5045405;27;88864;-57
2022/12/26 07:46:57;;;;;;;1.10;0.60;;;;;;;;;;5060032;27;87079;-58
2022/12/26 07:49:25;;;;;;;0.37;0.37;;;;;;;;;;5047048;27;86858;-56
2022/12/26 07:51:54;;;;;;;0.70;0.70;;;;;;;;;;5052082;27;88282;-58
2022/12/26 07:54:23;;;;;;;0.50;0.50;;;;;;;;;;5059226;27;87866;-57
2022/12/26 07:56:51;;;;;;;0.40;0.40;;;;;;;;;;5044226;27;87104;-57
2022/12/26 07:59:19;;;;;;;0.83;0.60;;;;;;;;;;5045324;27;86355;-57
2022/12/26 08:01:48;;;;;;;0.40;0.40;;;;;;;;;;5045178;27;87234;-57
2022/12/26 08:04:17;;;;;;;0.37;0.37;;;;;;;;;;5044086;27;87825;-56
2022/12/26 08:06:46;;;;;;;0.57;0.43;;;;;;;;;;5046630;27;87945;-57
2022/12/26 08:09:15;;;;;;;0.50;0.50;;;;;;;;;;5064430;27;86941;-57
2022/12/26 08:11:44;;;;;;;0.40;0.40;;;;;;;;;;5063558;27;89046;-57
2022/12/26 08:14:15;;;;;;;0.57;0.30;;;;;;;;;;5064161;27;88845;-57
2022/12/26 08:16:43;;;;;;;0.40;0.33;;;;;;;;;;5054736;27;87136;-57
2022/12/26 08:19:21;;;;;;;0.33;0.33;;;;;;;;;;5055070;27;87081;-57
2022/12/26 08:21:49;;;;;;;0.30;0.30;;;;;;;;;;5055319;27;89086;-57
2022/12/26 08:24:18;;;;;;;0.77;0.70;;;;;;;;;;5047700;27;87750;-57
2022/12/26 08:26:46;;;;;;;0.30;0.30;;;;;;;;;;5047542;27;87083;-57
2022/12/26 08:29:14;;;;;;;0.57;0.57;;;;;;;;;;5060732;27;87241;-56
2022/12/26 08:31:43;;;;;;;0.40;0.40;;;;;;;;;;5054166;27;88979;-57
2022/12/26 08:34:12;;;;;;;0.43;0.43;;;;;;;;;;5061193;27;89967;-57
2022/12/26 08:36:41;;;;;;;0.40;0.40;;;;;;;;;;5059622;27;87064;-57
2022/12/26 08:39:10;;;;;;;0.40;0.40;;;;;;;;;;5043626;27;87067;-57
2022/12/26 08:41:38;;;;;;;0.30;0.30;;;;;;;;;;5043218;27;86931;-57
2022/12/26 08:44:06;;;;;;;0.30;0.30;;;;;;;;;;5044480;27;88818;-57
2022/12/26 08:46:55;;;;;;;2.23;0.67;;;;;;;;;;5043846;27;87108;-57
2022/12/26 08:49:23;;;;;;;0.63;0.50;;;;;;;;;;5042837;28;86430;-57
2022/12/26 08:51:53;;;;;;;0.20;0.20;;;;;;;;;;5041839;27;88105;-57
2022/12/26 08:54:21;;;;;;;0.60;0.60;;;;;;;;;;5044861;27;87889;-57
2022/12/26 08:56:50;;;;;;;0.40;0.40;;;;;;;;;;5057186;27;88008;-57
2022/12/26 08:59:18;;;;;;;0.50;0.50;;;;;;;;;;5062898;27;87025;-57
2022/12/26 09:01:46;;;;;;;1.00;0.30;;;;;;;;;;5050987;27;88035;-56
2022/12/26 09:04:15;;;;;;;2.60;0.97;;;;;;;;;;5042419;27;87714;-57
2022/12/26 09:06:43;;;;;;;0.20;0.20;;;;;;;;;;5054192;27;87069;-58
2022/12/26 09:09:13;;;;;;;0.30;0.30;;;;;;;;;;5061347;27;87074;-57
2022/12/26 09:11:42;;;;;;;0.30;0.30;;;;;;;;;;5061877;27;86934;-57
2022/12/26 09:14:10;;;;;;;1.30;0.53;;;;;;;;;;5061015;27;88854;-57
2022/12/26 09:16:41;;;;;;;0.57;0.57;;;;;;;;;;5043482;27;87189;-57
2022/12/26 09:19:17;;;;;;;0.50;0.30;;;;;;;;;;5053996;27;87141;-57
2022/12/26 09:21:46;;;;;;;0.20;0.20;;;;;;;;;;5042872;27;89028;-58
2022/12/26 09:24:16;;;;;;;0.53;0.53;;;;;;;;;;5043879;27;89871;-58
2022/12/26 09:26:44;;;;;;;0.20;0.20;;;;;;;;;;5058851;27;86834;-57
2022/12/26 09:29:13;;;;;;;0.47;0.47;;;;;;;;;;5054270;27;87043;-57
2022/12/26 09:31:41;;;;;;;0.47;0.47;;;;;;;;;;5060246;27;88175;-57
2022/12/26 09:34:09;;;;;;;0.37;0.37;;;;;;;;;;5041830;28;88853;-57
2022/12/26 09:36:38;;;;;;;0.30;0.30;;;;;;;;;;5042263;27;87094;-57
2022/12/26 09:39:06;;;;;;;1.67;0.40;;;;;;;;;;5043366;27;86618;-57
2022/12/26 09:41:53;;;;;;;0.67;0.60;;;;;;;;;;5042108;27;89112;-57
2022/12/26 09:44:23;;;;;;;0.23;0.23;;;;;;;;;;5043654;27;88264;-56
2022/12/26 09:46:53;;;;;;;1.77;0.70;;;;;;;;;;5056888;27;87959;-57
2022/12/26 09:49:22;;;;;;;0.37;0.37;;;;;;;;;;5041510;28;87122;-57
2022/12/26 09:51:51;;;;;;;0.50;0.50;;;;;;;;;;5041690;27;89323;-56
2022/12/26 09:54:30;;;;;;;0.53;0.30;;;;;;;;;;5041751;28;88782;-57
2022/12/26 09:56:59;;;;;;;0.40;0.20;;;;;;;;;;5041873;28;87132;-57
2022/12/26 09:59:32;;;;;;;0.40;0.40;;;;;;;;;;5041898;28;88155;-57
2022/12/26 10:02:01;;;;;;;1.07;0.30;;;;;;;;;;5041523;27;88048;-57
2022/12/26 10:04:29;;;;;;;0.43;0.43;;;;;;;;;;5042297;28;88828;-56
2022/12/26 10:07:01;;;;;;;0.30;0.30;;;;;;;;;;5041439;27;86940;-57
2022/12/26 10:09:37;;;;;;;0.50;0.50;;;;;;;;;;5041540;28;87140;-57
2022/12/26 10:12:14;;;;;;;0.60;0.33;;;;;;;;;;5040860;27;89082;-57
2022/12/26 10:14:45;;;;;;;0.60;0.60;;;;;;;;;;5041585;27;88742;-57
2022/12/26 10:17:16;;;;;;;0.33;0.33;;;;;;;;;;5042298;27;87120;-57
2022/12/26 10:19:48;;;;;;;0.30;0.30;;;;;;;;;;5041774;28;87126;-56
2022/12/26 10:22:22;;;;;;;0.50;0.50;;;;;;;;;;5040822;28;88274;-57
2022/12/26 10:24:50;;;;;;;0.50;0.40;;;;;;;;;;5040951;27;87919;-57
2022/12/26 10:27:19;;;;;;;2.13;0.20;;;;;;;;;;5041543;27;86997;-57
2022/12/26 10:29:50;;;;;;;0.30;0.30;;;;;;;;;;5042829;27;86358;-56
2022/12/26 10:32:19;;;;;;;0.37;0.37;;;;;;;;;;5041734;28;89256;-58
2022/12/26 10:34:55;;;;;;;0.40;0.40;;;;;;;;;;5053745;27;87810;-56
2022/12/26 10:37:24;;;;;;;0.30;0.30;;;;;;;;;;5081653;27;87995;-56
2022/12/26 10:39:54;;;;;;;0.23;0.20;;;;;;;;;;5052983;27;87085;-56
2022/12/26 10:42:24;;;;;;;0.57;0.40;;;;;;;;;;5082589;27;88196;-56
2022/12/26 10:44:54;;;;;;;1.70;0.60;;;;;;;;;;5065346;27;88746;-55
2022/12/26 10:47:24;;;;;;;1.77;0.37;;;;;;;;;;5069678;27;87107;-55
2022/12/26 10:49:53;;;;;;;1.33;0.63;;;;;;;;;;5059174;27;87091;-56
2022/12/26 10:52:22;;;;;;;0.90;0.60;;;;;;;;;;5055982;27;88333;-56
2022/12/26 10:54:52;;;;;;;0.53;0.53;;;;;;;;;;5060739;27;88805;-58
2022/12/26 10:57:41;;;;;;;0.37;0.37;;;;;;;;;;5047672;27;87001;-56
2022/12/26 11:00:17;;;;;;;0.30;0.30;;;;;;;;;;5061318;27;86893;-56
2022/12/26 11:02:46;;;;;;;1.97;0.63;;;;;;;;;;5060336;27;89295;-56
2022/12/26 11:05:15;;;;;;;0.50;0.50;;;;;;;;;;5061099;27;89190;-56
2022/12/26 11:08:07;;;;;;;3.17;0.67;;;;;;;;;;5061476;27;86932;-56
2022/12/26 11:10:36;;;;;;;0.40;0.40;;;;;;;;;;5061456;27;87039;-56
2022/12/26 11:13:05;;;;;;;0.33;0.33;;;;;;;;;;5060587;27;88088;-56
2022/12/26 11:15:36;;;;;;;0.30;0.30;;;;;;;;;;5060923;27;89045;-56
2022/12/26 11:18:09;;;;;;;1.37;0.30;;;;;;;;;;5061446;27;86870;-56
2022/12/26 11:20:38;;;;;;;0.87;0.40;;;;;;;;;;5061485;27;86225;-56
2022/12/26 11:23:30;;;;;;;1.50;0.50;;;;;;;;;;5056441;27;87572;-55
2022/12/26 11:25:59;;;;;;;0.30;0.30;;;;;;;;;;5037393;27;87627;-56
2022/12/26 11:28:32;;;;;;;0.37;0.37;;;;;;;;;;5052708;27;87936;-55
2022/12/26 11:31:02;;;;;;;0.50;0.50;;;;;;;;;;5060671;27;86949;-55
2022/12/26 11:33:32;;;;;;;0.43;0.30;;;;;;;;;;5061194;27;88962;-55
2022/12/26 11:36:05;;;;;;;1.03;0.40;;;;;;;;;;5062794;27;89006;-55
2022/12/26 11:38:34;;;;;;;0.67;0.63;;;;;;;;;;5064779;27;87049;-55
2022/12/26 11:44:00;;;;;;;0.30;0.30;;;;;;;;;;5063929;27;89286;-55
2022/12/26 11:46:37;;;;;;;0.53;0.30;;;;;;;;;;5063863;27;87619;-55
2022/12/26 11:49:06;;;;;;;1.77;0.33;;;;;;;;;;5064459;27;86907;-56
2022/12/26 11:51:39;;;;;;;0.30;0.20;;;;;;;;;;5064708;27;86975;-55
2022/12/26 11:54:22;;;;;;;3.50;0.50;;;;;;;;;;5063209;27;89118;-55
2022/12/26 11:57:00;;;;;;;0.60;0.20;;;;;;;;;;5047573;27;88509;-55
2022/12/26 11:59:28;;;;;;;0.53;0.50;;;;;;;;;;5068930;27;87079;-56
2022/12/26 12:02:20;;;;;;;0.30;0.30;;;;;;;;;;5084866;27;86973;-55
2022/12/26 12:04:49;;;;;;;0.43;0.33;;;;;;;;;;5067817;27;89319;-55
2022/12/26 12:07:20;;;;;;;0.37;0.30;;;;;;;;;;5063994;27;87863;-55
2022/12/26 12:09:50;;;;;;;0.43;0.43;;;;;;;;;;5064135;27;87030;-55
2022/12/26 12:12:19;;;;;;;1.20;0.47;;;;;;;;;;5064391;27;86367;-55
2022/12/26 12:14:52;;;;;;;1.83;0.50;;;;;;;;;;5063811;27;89369;-55
2022/12/26 12:17:25;;;;;;;2.00;0.40;;;;;;;;;;5063519;27;88000;-55
2022/12/26 12:20:01;;;;;;;0.40;0.40;;;;;;;;;;5063175;27;87940;-55
2022/12/26 12:22:34;;;;;;;0.30;0.30;;;;;;;;;;5063843;27;87036;-55
2022/12/26 12:25:13;;;;;;;2.47;0.53;;;;;;;;;;5063587;27;89331;-54
2022/12/26 12:27:42;;;;;;;0.30;0.30;;;;;;;;;;5063581;27;89049;-56
2022/12/26 12:30:14;;;;;;;0.30;0.30;;;;;;;;;;5063197;27;88034;-53
2022/12/26 12:32:46;;;;;;;0.53;0.30;;;;;;;;;;5064235;27;86966;-55
2022/12/26 12:35:27;;;;;;;0.60;0.40;;;;;;;;;;5057986;27;88229;-57
2022/12/26 12:38:03;;;;;;;2.03;0.57;;;;;;;;;;5053387;27;87860;-56
2022/12/26 12:40:33;;;;;;;0.67;0.40;;;;;;;;;;5083574;27;86945;-56
2022/12/26 12:43:03;;;;;;;0.97;0.50;;;;;;;;;;5077405;27;86984;-56
2022/12/26 12:45:33;;;;;;;0.20;0.20;;;;;;;;;;5062101;27;89087;-56
2022/12/26 12:48:22;;;;;;;0.33;0.30;;;;;;;;;;5062915;27;89680;-56
2022/12/26 12:50:54;;;;;;;0.30;0.30;;;;;;;;;;5057392;27;87130;-56
2022/12/26 12:53:26;;;;;;;0.20;0.20;;;;;;;;;;5063363;27;86780;-56
2022/12/26 12:56:03;;;;;;;2.10;0.43;;;;;;;;;;5063020;27;87900;-56
2022/12/26 12:58:34;;;;;;;0.40;0.40;;;;;;;;;;5063042;27;87094;-56
2022/12/26 13:01:03;;;;;;;0.63;0.30;;;;;;;;;;5063062;27;86802;-56
2022/12/26 13:03:33;;;;;;;0.50;0.40;;;;;;;;;;5063281;27;86284;-56
2022/12/26 13:06:04;;;;;;;0.30;0.30;;;;;;;;;;5062264;27;88464;-56
2022/12/26 13:08:33;;;;;;;0.37;0.37;;;;;;;;;;5063299;27;87820;-56
2022/12/26 13:11:02;;;;;;;0.30;0.30;;;;;;;;;;5066838;27;87786;-56
2022/12/26 13:13:31;;;;;;;0.20;0.20;;;;;;;;;;5062447;27;87139;-56
2022/12/26 13:16:00;;;;;;;0.30;0.30;;;;;;;;;;5061972;27;88172;-56
2022/12/26 13:18:29;;;;;;;1.30;0.40;;;;;;;;;;5062223;27;87668;-56
2022/12/26 13:20:59;;;;;;;0.20;0.20;;;;;;;;;;5063036;27;87022;-56
2022/12/26 13:26:17;;;;;;;1.17;0.87;;;;;;;;;;5062458;27;88085;-56
2022/12/26 13:28:49;;;;;;;0.57;0.30;;;;;;;;;;5062940;27;88959;-56
2022/12/26 13:31:18;;;;;;;0.83;0.50;;;;;;;;;;5062958;27;87044;-56
2022/12/26 13:33:46;;;;;;;0.50;0.20;;;;;;;;;;5062806;27;87074;-56
2022/12/26 13:36:29;;;;;;;0.57;0.23;;;;;;;;;;5061470;27;90056;-56
2022/12/26 13:39:28;;;;;;;0.13;0.13;;;;;;;;;;5041805;27;88945;-56
2022/12/26 13:44:48;;;;;;;0.33;0.30;;;;;;;;;;5042017;27;87024;-56
2022/12/26 13:47:34;;;;;;;0.30;0.30;;;;;;;;;;5061388;27;89154;-57
2022/12/26 13:50:21;;;;;;;0.30;0.30;;;;;;;;;;5061176;27;87867;-56
2022/12/26 13:52:49;;;;;;;0.20;0.20;;;;;;;;;;5061809;27;86923;-55
2022/12/26 13:55:20;;;;;;;0.23;0.20;;;;;;;;;;5057741;27;86315;-56
2022/12/26 13:57:50;;;;;;;0.40;0.30;;;;;;;;;;5061170;27;88018;-56
2022/12/26 14:00:19;;;;;;;0.73;0.50;;;;;;;;;;5040871;27;87783;-55
2022/12/26 14:03:06;;;;;;;0.70;0.40;;;;;;;;;;5059615;27;87984;-55
2022/12/26 14:05:54;;;;;;;0.23;0.23;;;;;;;;;;5061043;27;87066;-55
2022/12/26 14:08:27;;;;;;;0.40;0.23;;;;;;;;;;5062126;27;88145;-55
2022/12/26 14:10:57;;;;;;;2.03;0.40;;;;;;;;;;5061924;27;87918;-56
2022/12/26 14:13:34;;;;;;;1.30;0.40;;;;;;;;;;5061784;27;87058;-55
2022/12/26 14:16:04;;;;;;;0.20;0.20;;;;;;;;;;5061686;27;86999;-56
2022/12/26 14:18:36;;;;;;;0.40;0.40;;;;;;;;;;5061715;27;87964;-56
2022/12/26 14:21:15;;;;;;;1.50;0.43;;;;;;;;;;5061171;27;87840;-56
2022/12/26 14:23:45;;;;;;;0.40;0.40;;;;;;;;;;5062182;27;87051;-55
2022/12/26 14:26:18;;;;;;;0.77;0.30;;;;;;;;;;5061543;27;87035;-55
2022/12/26 14:28:51;;;;;;;0.30;0.20;;;;;;;;;;5060833;27;90252;-57
2022/12/26 14:31:20;;;;;;;0.10;0.10;;;;;;;;;;5061560;27;89854;-56
2022/12/26 14:33:50;;;;;;;0.10;0.10;;;;;;;;;;5061774;27;86897;-55
2022/12/26 14:36:20;;;;;;;0.43;0.43;;;;;;;;;;5061455;27;86792;-55
2022/12/26 14:38:50;;;;;;;0.37;0.37;;;;;;;;;;5061690;27;89034;-55
2022/12/26 14:44:15;;;;;;;0.70;0.40;;;;;;;;;;5061938;27;86743;-55
2022/12/26 14:46:56;;;;;;;0.30;0.30;;;;;;;;;;5062004;27;86324;-55
2022/12/26 14:49:25;;;;;;;1.03;0.70;;;;;;;;;;5061887;27;88100;-55
2022/12/26 14:52:17;;;;;;;0.20;0.20;;;;;;;;;;5061606;27;88867;-55
2022/12/26 14:54:46;;;;;;;0.90;0.20;;;;;;;;;;5060326;27;87878;-54
2022/12/26 14:57:37;;;;;;;1.90;0.40;;;;;;;;;;5061380;27;86916;-55
2022/12/26 15:00:13;;;;;;;0.77;0.50;;;;;;;;;;5060836;27;88050;-55
2022/12/26 15:02:42;;;;;;;0.40;0.20;;;;;;;;;;5061568;27;87081;-55
2022/12/26 15:05:11;;;;;;;0.20;0.20;;;;;;;;;;5061887;27;86986;-55
2022/12/26 15:07:48;;;;;;;0.30;0.30;;;;;;;;;;5060581;27;87026;-55
2022/12/26 15:10:20;;;;;;;7.83;0.60;;;;;;;;;;5056751;27;87192;-55
2022/12/26 15:13:04;;;;;;;0.23;0.20;;;;;;;;;;5065488;27;87810;-55
2022/12/26 15:15:34;;;;;;;0.20;0.20;;;;;;;;;;5064887;27;86748;-55
2022/12/26 15:18:09;;;;;;;0.20;0.20;;;;;;;;;;5065224;27;87073;-55
2022/12/26 15:20:59;;;;;;;0.63;0.30;;;;;;;;;;5064677;27;89104;-55
2022/12/26 15:23:47;;;;;;;0.87;0.30;;;;;;;;;;5058425;27;88815;-55
2022/12/26 15:26:39;;;;;;;0.50;0.37;;;;;;;;;;5046338;27;86787;-55
2022/12/26 15:29:29;;;;;;;0.20;0.20;;;;;;;;;;5029162;27;87051;-55
2022/12/26 15:32:03;;;;;;;1.60;0.33;;;;;;;;;;5061608;27;88270;-55
2022/12/26 15:34:42;;;;;;;0.53;0.30;;;;;;;;;;5064348;27;87796;-55
2022/12/26 15:37:15;;;;;;;0.30;0.30;;;;;;;;;;5064562;27;87073;-55
2022/12/26 15:39:44;;;;;;;0.40;0.40;;;;;;;;;;5065240;27;86341;-55
2022/12/26 15:42:18;;;;;;;0.57;0.30;;;;;;;;;;5064591;27;89118;-56
2022/12/26 15:44:48;;;;;;;0.20;0.20;;;;;;;;;;5064388;27;91413;-56
2022/12/26 15:47:19;;;;;;;0.17;0.17;;;;;;;;;;5063763;27;87897;-55
2022/12/26 15:49:59;;;;;;;0.43;0.30;;;;;;;;;;5064340;27;87054;-55
2022/12/26 15:52:30;;;;;;;0.83;0.43;;;;;;;;;;5063652;27;88126;-55
2022/12/26 15:55:09;;;;;;;0.33;0.20;;;;;;;;;;5063609;27;88843;-55
2022/12/26 15:57:39;;;;;;;1.47;0.60;;;;;;;;;;5064466;27;87019;-55
2022/12/26 16:00:12;;;;;;;0.40;0.40;;;;;;;;;;5057539;27;87004;-55
2022/12/26 16:02:45;;;;;;;0.40;0.40;;;;;;;;;;5045834;27;88151;-55
2022/12/26 16:05:29;;;;;;;0.40;0.20;;;;;;;;;;5043203;27;87827;-55
2022/12/26 16:07:59;;;;;;;1.53;0.80;;;;;;;;;;5046193;27;87012;-56
2022/12/26 16:10:28;;;;;;;0.53;0.20;;;;;;;;;;5048052;27;88394;-56
2022/12/26 16:12:58;;;;;;;0.53;0.50;;;;;;;;;;5045350;27;89265;-56
2022/12/26 16:15:29;;;;;;;1.03;0.40;;;;;;;;;;5050428;27;88765;-56
2022/12/26 16:18:12;;;;;;;1.30;0.43;;;;;;;;;;5050724;27;87346;-56
2022/12/26 16:23:30;;;;;;;0.30;0.30;;;;;;;;;;5044565;27;88786;-56
2022/12/26 16:25:59;;;;;;;0.40;0.40;;;;;;;;;;5051090;27;87972;-56
2022/12/26 16:28:29;;;;;;;0.60;0.50;;;;;;;;;;5045825;27;88679;-55
2022/12/26 16:30:57;;;;;;;0.50;0.40;;;;;;;;;;5058982;27;86304;-56
2022/12/26 16:33:26;;;;;;;0.73;0.40;;;;;;;;;;5063418;27;88286;-56
2022/12/26 16:35:55;;;;;;;0.87;0.47;;;;;;;;;;5055173;27;88929;-55
2022/12/26 16:38:29;;;;;;;3.00;0.93;;;;;;;;;;5053197;27;88148;-56
2022/12/26 16:40:59;;;;;;;0.50;0.30;;;;;;;;;;5051227;27;87066;-56
2022/12/26 16:43:28;;;;;;;0.43;0.43;;;;;;;;;;5061491;27;88134;-56
2022/12/26 16:45:59;;;;;;;0.40;0.33;;;;;;;;;;5055563;27;88664;-56
2022/12/26 16:48:28;;;;;;;0.27;0.17;;;;;;;;;;5049073;27;87508;-56
2022/12/26 16:50:58;;;;;;;0.50;0.50;;;;;;;;;;5063227;27;87047;-56
2022/12/26 16:53:41;;;;;;;3.97;0.73;;;;;;;;;;5061303;27;88305;-56
2022/12/26 16:56:15;;;;;;;0.43;0.43;;;;;;;;;;5053350;27;87953;-56
2022/12/26 16:58:44;;;;;;;0.50;0.50;;;;;;;;;;5055584;27;87153;-56
2022/12/26 17:01:13;;;;;;;0.70;0.50;;;;;;;;;;5051864;27;86997;-56
2022/12/26 17:03:44;;;;;;;0.50;0.50;;;;;;;;;;5077326;27;90017;-56
2022/12/26 17:06:15;;;;;;;0.27;0.27;;;;;;;;;;5081720;27;89900;-56
2022/12/26 17:08:44;;;;;;;0.13;0.13;;;;;;;;;;5062838;27;87038;-56
2022/12/26 17:11:13;;;;;;;0.67;0.40;;;;;;;;;;5045919;27;86993;-57
2022/12/26 17:13:41;;;;;;;0.50;0.33;;;;;;;;;;5057373;27;88076;-57
2022/12/26 17:16:10;;;;;;;2.30;0.60;;;;;;;;;;5042019;27;87881;-56
2022/12/26 17:18:41;;;;;;;0.50;0.50;;;;;;;;;;5048917;27;87122;-56
2022/12/26 17:21:18;;;;;;;0.37;0.37;;;;;;;;;;5055985;27;87196;-56
2022/12/26 17:23:46;;;;;;;0.57;0.30;;;;;;;;;;5060370;27;88270;-56
2022/12/26 17:26:18;;;;;;;0.50;0.50;;;;;;;;;;5059354;27;87562;-56
2022/12/26 17:28:47;;;;;;;0.30;0.30;;;;;;;;;;5047284;27;87947;-56
2022/12/26 17:31:17;;;;;;;0.57;0.50;;;;;;;;;;5050016;27;87022;-56